Gazpromneft East — UBOF4 — position and weather

sailwx.info

Track history (hours):
 
Tides and Currents Weather Stations Pressure Air Temp Water Temp Dewpoint Dewpoint Depression Visibility Wind Speed Wind Dir Waves Ship Positions

Gazpromneft East

Last reported at 2014-Jul-22 12:32 UTC. Time now 2014-Jul-22 13:25 UTC.
Position N 59°53' E 030°11'.

Length 79 m; draft 5 m.

Type: Tanker. MMSI: 273335320.

Date/timePositionNaut miles runAvg speedWind from/ knotsBaromVisibWave heightAir tempDewpointWater temp
2014-Jul-22 12:32N 59°53' E 030°11'0 0.0
2014-Jul-22 08:08N 59°53' E 030°11'0 0.0
2014-Jul-22 06:30N 59°53' E 030°11'0 0.0
2014-Jul-22 05:09N 59°53' E 030°11'1 1.2
2014-Jul-22 04:26N 59°53' E 030°13'1 0.1
2014-Jul-21 20:31N 59°53' E 030°11'1 0.1
2014-Jul-21 08:23N 59°53' E 030°14'0 0.0
2014-Jul-21 07:08N 59°53' E 030°14'0 0.0
2014-Jul-21 06:32N 59°53' E 030°14'0 0.0
2014-Jul-21 05:08N 59°53' E 030°14'1 0.0
2014-Jul-20 10:33N 59°54' E 030°13'3 2.9
2014-Jul-20 09:31N 59°56' E 030°17'0 0.0
2014-Jul-20 08:28N 59°56' E 030°17'0 0.0
2014-Jul-20 07:28N 59°56' E 030°17'0 0.0
2014-Jul-20 06:33N 59°56' E 030°17'5 0.1
2014-Jul-18 12:23N 59°54' E 030°08'3 0.2
2014-Jul-17 14:33N 59°57' E 030°10'0 0.0
2014-Jul-17 05:33N 59°57' E 030°10'3 0.3
2014-Jul-16 19:19N 59°54' E 030°06'4 3.1
2014-Jul-16 18:03N 59°53' E 030°14'0 0.0
2014-Jul-16 17:28N 59°53' E 030°14'0 0.0
2014-Jul-16 15:31N 59°53' E 030°14'3 3.5
2014-Jul-16 14:33N 59°56' E 030°17'0 0.2
2014-Jul-16 13:27N 59°56' E 030°17'0 0.0
2014-Jul-16 11:16N 59°56' E 030°17'0 0.0
2014-Jul-16 10:33N 59°56' E 030°17'0 0.0
2014-Jul-16 09:32N 59°56' E 030°17'0 0.0
2014-Jul-16 08:32N 59°56' E 030°17'0 0.0
2014-Jul-16 07:32N 59°56' E 030°17'0 0.0
2014-Jul-16 06:33N 59°56' E 030°17'2 1.8
2014-Jul-16 05:33N 59°55' E 030°14'1 0.1
2014-Jul-15 15:20N 59°53' E 030°13'1 0.2
2014-Jul-15 10:23N 59°53' E 030°11'1 0.2
2014-Jul-15 05:32N 59°53' E 030°14'0 0.0
2014-Jul-15 04:32N 59°53' E 030°14'0 0.0
2014-Jul-15 03:30N 59°53' E 030°14'0 0.0
2014-Jul-15 02:33N 59°53' E 030°14'1 0.3
2014-Jul-14 23:08N 59°53' E 030°11'0 0.0
2014-Jul-14 22:32N 59°53' E 030°11'0 0.0
2014-Jul-14 21:33N 59°53' E 030°11'0 0.0
2014-Jul-14 20:28N 59°53' E 030°11'0 0.0
2014-Jul-14 16:18N 59°53' E 030°11'0 0.0
2014-Jul-14 15:07N 59°53' E 030°11'0 0.1
2014-Jul-14 13:24N 59°53' E 030°11'1 0.2
2014-Jul-14 06:13N 59°53' E 030°13'4 0.2
2014-Jul-13 05:08N 59°57' E 030°10'  
Track history (hours):
 
Tides and Currents Weather Stations Pressure Air Temp Water Temp Dewpoint Dewpoint Depression Visibility Wind Speed Wind Dir Waves Ship Positions

Gazpromneft East

Last reported at 2014-Jul-22 12:32 UTC. Time now 2014-Jul-22 13:25 UTC.
Position N 59°53' E 030°11'.

Length 79 m; draft 5 m.

Type: Tanker. MMSI: 273335320.

Date/timePositionNaut miles runAvg speedWind from/ knotsBaromVisibWave heightAir tempDewpointWater temp
2014-Jul-22 12:32N 59°53' E 030°11'0 0.0
2014-Jul-22 08:08N 59°53' E 030°11'0 0.0
2014-Jul-22 06:30N 59°53' E 030°11'0 0.0
2014-Jul-22 05:09N 59°53' E 030°11'1 1.2
2014-Jul-22 04:26N 59°53' E 030°13'1 0.1
2014-Jul-21 20:31N 59°53' E 030°11'1 0.1
2014-Jul-21 08:23N 59°53' E 030°14'0 0.0
2014-Jul-21 07:08N 59°53' E 030°14'0 0.0
2014-Jul-21 06:32N 59°53' E 030°14'0 0.0
2014-Jul-21 05:08N 59°53' E 030°14'1 0.0
2014-Jul-20 10:33N 59°54' E 030°13'3 2.9
2014-Jul-20 09:31N 59°56' E 030°17'0 0.0
2014-Jul-20 08:28N 59°56' E 030°17'0 0.0
2014-Jul-20 07:28N 59°56' E 030°17'0 0.0
2014-Jul-20 06:33N 59°56' E 030°17'5 0.1
2014-Jul-18 12:23N 59°54' E 030°08'3 0.2
2014-Jul-17 14:33N 59°57' E 030°10'0 0.0
2014-Jul-17 05:33N 59°57' E 030°10'3 0.3
2014-Jul-16 19:19N 59°54' E 030°06'4 3.1
2014-Jul-16 18:03N 59°53' E 030°14'0 0.0
2014-Jul-16 17:28N 59°53' E 030°14'0 0.0
2014-Jul-16 15:31N 59°53' E 030°14'3 3.5
2014-Jul-16 14:33N 59°56' E 030°17'0 0.2
2014-Jul-16 13:27N 59°56' E 030°17'0 0.0
2014-Jul-16 11:16N 59°56' E 030°17'0 0.0
2014-Jul-16 10:33N 59°56' E 030°17'0 0.0
2014-Jul-16 09:32N 59°56' E 030°17'0 0.0
2014-Jul-16 08:32N 59°56' E 030°17'0 0.0
2014-Jul-16 07:32N 59°56' E 030°17'0 0.0
2014-Jul-16 06:33N 59°56' E 030°17'2 1.8
2014-Jul-16 05:33N 59°55' E 030°14'1 0.1
2014-Jul-15 15:20N 59°53' E 030°13'1 0.2
2014-Jul-15 10:23N 59°53' E 030°11'1 0.2
2014-Jul-15 05:32N 59°53' E 030°14'0 0.0
2014-Jul-15 04:32N 59°53' E 030°14'0 0.0
2014-Jul-15 03:30N 59°53' E 030°14'0 0.0
2014-Jul-15 02:33N 59°53' E 030°14'1 0.3
2014-Jul-14 23:08N 59°53' E 030°11'0 0.0
2014-Jul-14 22:32N 59°53' E 030°11'0 0.0
2014-Jul-14 21:33N 59°53' E 030°11'0 0.0
2014-Jul-14 20:28N 59°53' E 030°11'0 0.0
2014-Jul-14 16:18N 59°53' E 030°11'0 0.0
2014-Jul-14 15:07N 59°53' E 030°11'0 0.1
2014-Jul-14 13:24N 59°53' E 030°11'1 0.2
2014-Jul-14 06:13N 59°53' E 030°13'4 0.2
2014-Jul-13 05:08N 59°57' E 030°10'  

Dump ship's entire track history